Time;durP1;ratioP1;P1;durP2;ratioP2;P2;SDS_P1;SDS_P2;PMS_P1;PMS_P2;Temp;Humidity;BMP_temperature;BMP_pressure;BME280_temperature;BME280_humidity;BME280_pressure;Samples;Min_cycle;Max_cycle;Signal;HPM_P1;HPM_P2
2023/04/03 00:01:15;;;;;;;10.43;5.15;;;;;;;;;;5030568;28;20029;-71
2023/04/03 00:03:41;;;;;;;7.45;4.05;;;;;;;;;;5030211;28;20033;-70
2023/04/03 00:06:08;;;;;;;9.50;4.85;;;;;;;;;;5031887;28;20425;-70
2023/04/03 00:08:33;;;;;;;8.15;5.00;;;;;;;;;;5028342;28;20104;-71
2023/04/03 00:10:59;;;;;;;7.63;5.15;;;;;;;;;;5029328;28;20561;-70
2023/04/03 00:13:24;;;;;;;9.50;5.25;;;;;;;;;;5027453;28;20025;-71
2023/04/03 00:15:50;;;;;;;9.75;5.72;;;;;;;;;;5025846;28;20100;-71
2023/04/03 00:18:15;;;;;;;15.55;4.78;;;;;;;;;;5027459;28;20100;-71
2023/04/03 00:20:40;;;;;;;6.87;4.90;;;;;;;;;;5027702;28;20025;-71
2023/04/03 00:23:06;;;;;;;13.57;5.60;;;;;;;;;;5028258;28;20282;-70
2023/04/03 00:25:31;;;;;;;18.48;5.30;;;;;;;;;;5029095;28;20673;-71
2023/04/03 00:27:56;;;;;;;9.38;5.35;;;;;;;;;;5028452;28;20040;-70
2023/04/03 00:30:22;;;;;;;8.07;5.30;;;;;;;;;;5027705;28;20488;-71
2023/04/03 00:32:48;;;;;;;8.93;5.07;;;;;;;;;;5028218;28;20033;-71
2023/04/03 00:35:15;;;;;;;9.55;4.90;;;;;;;;;;5031111;28;20434;-69
2023/04/03 00:37:41;;;;;;;11.48;5.45;;;;;;;;;;5028936;28;20084;-71
2023/04/03 00:40:06;;;;;;;13.43;5.07;;;;;;;;;;5030001;28;20644;-71
2023/04/03 00:42:31;;;;;;;11.30;5.50;;;;;;;;;;5026023;28;20029;-70
2023/04/03 00:44:56;;;;;;;10.30;5.33;;;;;;;;;;5026027;28;20017;-71
2023/04/03 00:47:22;;;;;;;12.65;4.93;;;;;;;;;;5029614;28;20278;-70
2023/04/03 00:49:49;;;;;;;8.95;5.38;;;;;;;;;;5026675;28;20054;-71
2023/04/03 00:52:16;;;;;;;8.63;6.00;;;;;;;;;;5029950;28;20022;-71
2023/04/03 00:54:42;;;;;;;7.13;4.97;;;;;;;;;;5028071;28;20052;-71
2023/04/03 00:57:08;;;;;;;10.40;5.82;;;;;;;;;;5027625;28;20021;-71
2023/04/03 00:59:35;;;;;;;6.68;5.05;;;;;;;;;;5028896;28;20072;-71
2023/04/03 01:02:00;;;;;;;9.27;4.88;;;;;;;;;;5027529;28;20108;-70
2023/04/03 01:04:30;;;;;;;14.38;5.80;;;;;;;;;;5023778;28;20116;-70
2023/04/03 01:06:57;;;;;;;20.40;5.43;;;;;;;;;;5028177;28;20067;-70
2023/04/03 01:09:22;;;;;;;10.13;5.63;;;;;;;;;;5025871;28;20029;-71
2023/04/03 01:11:47;;;;;;;15.25;5.43;;;;;;;;;;5029558;28;20095;-71
2023/04/03 01:14:12;;;;;;;11.80;5.43;;;;;;;;;;5029860;28;20025;-70
2023/04/03 01:16:39;;;;;;;8.40;4.70;;;;;;;;;;5028175;28;20022;-71
2023/04/03 01:19:07;;;;;;;12.00;5.95;;;;;;;;;;5026275;28;20009;-71
2023/04/03 01:21:41;;;;;;;9.00;5.15;;;;;;;;;;5025118;28;20030;-71
2023/04/03 01:24:27;;;;;;;9.35;5.25;;;;;;;;;;5030252;28;20052;-70
2023/04/03 01:26:52;;;;;;;10.52;4.80;;;;;;;;;;5021383;28;20026;-71
2023/04/03 01:29:17;;;;;;;12.60;5.70;;;;;;;;;;5026521;28;20028;-70
2023/04/03 01:31:59;;;;;;;10.65;5.28;;;;;;;;;;5022748;28;20100;-71
2023/04/03 01:34:24;;;;;;;14.80;5.40;;;;;;;;;;5029924;28;20437;-70
2023/04/03 01:36:50;;;;;;;8.18;5.00;;;;;;;;;;5030150;28;20096;-70
2023/04/03 01:39:16;;;;;;;12.27;5.53;;;;;;;;;;5028959;28;20041;-71
2023/04/03 01:41:41;;;;;;;8.10;4.93;;;;;;;;;;5027452;28;20715;-70
2023/04/03 01:44:06;;;;;;;8.27;5.28;;;;;;;;;;5026335;28;20025;-71
2023/04/03 01:46:31;;;;;;;10.07;5.10;;;;;;;;;;5027764;28;20096;-70
2023/04/03 01:48:57;;;;;;;8.70;5.18;;;;;;;;;;5030476;28;20625;-70
2023/04/03 01:51:22;;;;;;;12.20;6.10;;;;;;;;;;5027394;28;20033;-71
2023/04/03 01:53:48;;;;;;;12.75;5.15;;;;;;;;;;5029748;28;20025;-69
2023/04/03 01:56:13;;;;;;;14.80;6.25;;;;;;;;;;5027782;28;20024;-70
2023/04/03 01:58:38;;;;;;;13.90;6.43;;;;;;;;;;5028686;28;20037;-70
2023/04/03 02:01:04;;;;;;;11.48;5.28;;;;;;;;;;5027962;28;20104;-70
2023/04/03 02:03:29;;;;;;;11.52;5.78;;;;;;;;;;5024911;28;20033;-70
2023/04/03 02:05:55;;;;;;;8.50;5.00;;;;;;;;;;5027940;28;20129;-69
2023/04/03 02:08:20;;;;;;;11.52;5.68;;;;;;;;;;5026540;28;20028;-71
2023/04/03 02:10:49;;;;;;;8.73;5.13;;;;;;;;;;5027162;28;20113;-70
2023/04/03 02:13:14;;;;;;;11.32;6.32;;;;;;;;;;5027763;28;20018;-70
2023/04/03 02:15:40;;;;;;;18.92;6.03;;;;;;;;;;5027225;28;20029;-70
2023/04/03 02:18:05;;;;;;;13.80;5.25;;;;;;;;;;5027825;28;20067;-69
2023/04/03 02:20:31;;;;;;;11.82;4.93;;;;;;;;;;5028909;28;20028;-70
2023/04/03 02:22:56;;;;;;;10.73;5.15;;;;;;;;;;5027735;28;20160;-70
2023/04/03 02:25:21;;;;;;;11.60;5.80;;;;;;;;;;5028098;28;20032;-70
2023/04/03 02:27:46;;;;;;;11.27;5.35;;;;;;;;;;5027001;28;20029;-70
2023/04/03 02:30:12;;;;;;;9.93;5.60;;;;;;;;;;5028173;28;20091;-70
2023/04/03 02:32:37;;;;;;;11.77;5.50;;;;;;;;;;5027987;28;20045;-70
2023/04/03 02:35:03;;;;;;;15.30;5.80;;;;;;;;;;5027965;28;20017;-70
2023/04/03 02:37:28;;;;;;;11.35;5.40;;;;;;;;;;5025820;28;20593;-70
2023/04/03 02:39:53;;;;;;;9.90;4.85;;;;;;;;;;5027324;28;20030;-70
2023/04/03 02:42:18;;;;;;;10.60;5.43;;;;;;;;;;5026315;28;20025;-70
2023/04/03 02:44:44;;;;;;;9.98;5.47;;;;;;;;;;5025463;28;20268;-70
2023/04/03 02:47:09;;;;;;;14.05;5.47;;;;;;;;;;5026653;28;20021;-70
2023/04/03 02:49:34;;;;;;;9.77;5.18;;;;;;;;;;5023813;28;20033;-71
2023/04/03 02:52:00;;;;;;;14.02;5.90;;;;;;;;;;5024782;28;20032;-70
2023/04/03 02:54:28;;;;;;;9.38;5.38;;;;;;;;;;5026086;28;20129;-69
2023/04/03 02:56:53;;;;;;;8.68;5.70;;;;;;;;;;5028660;28;20503;-71
2023/04/03 02:59:18;;;;;;;12.02;6.13;;;;;;;;;;5026528;28;20029;-70
2023/04/03 03:01:44;;;;;;;10.18;5.00;;;;;;;;;;5028116;28;20390;-70
2023/04/03 03:04:09;;;;;;;10.88;5.72;;;;;;;;;;5026263;28;20120;-70
2023/04/03 03:06:34;;;;;;;12.10;5.47;;;;;;;;;;5026422;28;20027;-70
2023/04/03 03:08:59;;;;;;;10.35;5.93;;;;;;;;;;5029232;28;20749;-70
2023/04/03 03:11:25;;;;;;;8.82;5.55;;;;;;;;;;5028931;28;20065;-70
2023/04/03 03:13:50;;;;;;;11.50;6.07;;;;;;;;;;5027704;28;20017;-70
2023/04/03 03:16:15;;;;;;;13.15;5.57;;;;;;;;;;5025176;28;20029;-70
2023/04/03 03:18:40;;;;;;;10.90;5.90;;;;;;;;;;5027672;28;20064;-71
2023/04/03 03:21:06;;;;;;;15.43;5.57;;;;;;;;;;5028275;28;20248;-70
2023/04/03 03:23:32;;;;;;;13.00;5.13;;;;;;;;;;5027481;28;20029;-70
2023/04/03 03:26:04;;;;;;;16.10;5.72;;;;;;;;;;5032930;28;20026;-71
2023/04/03 03:28:30;;;;;;;11.43;4.85;;;;;;;;;;5026347;28;20030;-70
2023/04/03 03:30:55;;;;;;;9.48;4.28;;;;;;;;;;5031085;28;20033;-70
2023/04/03 03:33:20;;;;;;;9.88;4.15;;;;;;;;;;5031443;28;20096;-70
2023/04/03 03:35:45;;;;;;;11.85;3.88;;;;;;;;;;5031202;28;20079;-70
2023/04/03 03:38:11;;;;;;;11.32;4.13;;;;;;;;;;5030302;28;20083;-69
2023/04/03 03:40:36;;;;;;;9.90;4.18;;;;;;;;;;5031016;28;20029;-70
2023/04/03 03:43:01;;;;;;;9.90;4.00;;;;;;;;;;5029282;28;20044;-70
2023/04/03 03:45:26;;;;;;;8.85;3.35;;;;;;;;;;5029824;28;20373;-70
2023/04/03 03:47:52;;;;;;;7.53;3.75;;;;;;;;;;5031018;28;20021;-70
2023/04/03 03:50:17;;;;;;;8.57;3.63;;;;;;;;;;5031714;28;20021;-71
2023/04/03 03:52:42;;;;;;;5.25;3.13;;;;;;;;;;5028552;28;20029;-70
2023/04/03 03:55:07;;;;;;;5.65;3.00;;;;;;;;;;5032037;28;20024;-70
2023/04/03 03:57:33;;;;;;;6.18;3.17;;;;;;;;;;5029774;28;20026;-70
2023/04/03 03:59:58;;;;;;;10.80;3.28;;;;;;;;;;5031628;28;20025;-70
2023/04/03 04:02:23;;;;;;;5.47;2.93;;;;;;;;;;5024014;28;20100;-70
2023/04/03 04:04:48;;;;;;;4.60;2.85;;;;;;;;;;5033143;28;20621;-69
2023/04/03 04:07:14;;;;;;;7.03;2.75;;;;;;;;;;5027024;28;20607;-71
2023/04/03 04:09:39;;;;;;;8.25;2.42;;;;;;;;;;5033024;28;20032;-71
2023/04/03 04:12:04;;;;;;;5.78;2.42;;;;;;;;;;5030295;28;20053;-70
2023/04/03 04:14:30;;;;;;;10.50;2.90;;;;;;;;;;5028988;28;20018;-70
2023/04/03 04:16:55;;;;;;;9.85;2.60;;;;;;;;;;5031140;28;20032;-69
2023/04/03 04:19:20;;;;;;;10.50;4.22;;;;;;;;;;5029096;28;20022;-70
2023/04/03 04:21:45;;;;;;;4.78;2.55;;;;;;;;;;5031265;28;20552;-69
2023/04/03 04:24:11;;;;;;;4.70;2.23;;;;;;;;;;5030040;28;20116;-71
2023/04/03 04:26:36;;;;;;;6.35;2.55;;;;;;;;;;5029045;28;20303;-70
2023/04/03 04:29:01;;;;;;;13.37;3.50;;;;;;;;;;5030116;28;20402;-70
2023/04/03 04:31:26;;;;;;;8.88;2.53;;;;;;;;;;5027851;28;20366;-70
2023/04/03 04:33:52;;;;;;;10.45;2.85;;;;;;;;;;5030506;28;20028;-69
2023/04/03 04:36:17;;;;;;;7.20;2.38;;;;;;;;;;5028036;28;20471;-71
2023/04/03 04:38:42;;;;;;;5.93;2.92;;;;;;;;;;5031335;28;20025;-70
2023/04/03 04:41:07;;;;;;;8.20;2.55;;;;;;;;;;5030673;28;20096;-71
2023/04/03 04:43:33;;;;;;;9.38;2.88;;;;;;;;;;5027059;28;20408;-72
2023/04/03 04:46:05;;;;;;;10.63;2.95;;;;;;;;;;5027654;28;20038;-70
2023/04/03 04:48:31;;;;;;;10.20;2.90;;;;;;;;;;5028371;28;20092;-71
2023/04/03 04:50:56;;;;;;;9.90;2.33;;;;;;;;;;5031454;28;20041;-70
2023/04/03 04:53:22;;;;;;;10.00;2.30;;;;;;;;;;5025768;28;20498;-71
2023/04/03 04:55:47;;;;;;;15.20;2.50;;;;;;;;;;5030431;28;20067;-70
2023/04/03 04:58:13;;;;;;;5.53;2.42;;;;;;;;;;5028554;28;20482;-70
2023/04/03 05:00:38;;;;;;;6.50;2.05;;;;;;;;;;5031590;28;20085;-70
2023/04/03 05:03:03;;;;;;;8.03;2.47;;;;;;;;;;5029206;28;20053;-71
2023/04/03 05:05:28;;;;;;;10.67;2.60;;;;;;;;;;5031618;28;20282;-69
2023/04/03 05:07:53;;;;;;;4.90;2.33;;;;;;;;;;5028615;28;20310;-70
2023/04/03 05:10:18;;;;;;;9.60;2.17;;;;;;;;;;5029965;28;20268;-70
2023/04/03 05:12:44;;;;;;;6.82;2.65;;;;;;;;;;5022922;28;20296;-70
2023/04/03 05:15:09;;;;;;;8.40;2.50;;;;;;;;;;5024087;28;20061;-70
2023/04/03 05:17:34;;;;;;;13.07;2.53;;;;;;;;;;5026613;28;20021;-70
2023/04/03 05:19:59;;;;;;;5.90;2.35;;;;;;;;;;5027825;28;20490;-70
2023/04/03 05:22:25;;;;;;;19.35;3.08;;;;;;;;;;5025892;28;20501;-70
2023/04/03 05:24:50;;;;;;;5.38;2.25;;;;;;;;;;5023841;28;20033;-70
2023/04/03 05:27:16;;;;;;;5.23;2.10;;;;;;;;;;5025988;28;20486;-70
2023/04/03 05:29:43;;;;;;;15.43;2.80;;;;;;;;;;5026047;28;20283;-70
2023/04/03 05:32:08;;;;;;;10.43;3.13;;;;;;;;;;5027235;28;20033;-71
2023/04/03 05:34:33;;;;;;;9.52;3.55;;;;;;;;;;5022212;28;20544;-70
2023/04/03 05:36:59;;;;;;;16.70;2.78;;;;;;;;;;5026174;28;20036;-70
2023/04/03 05:39:24;;;;;;;7.60;2.80;;;;;;;;;;5022218;28;20026;-70
2023/04/03 05:41:49;;;;;;;6.97;2.15;;;;;;;;;;5028071;28;20032;-70
2023/04/03 05:44:14;;;;;;;12.82;3.10;;;;;;;;;;5024447;28;20032;-70
2023/04/03 05:46:40;;;;;;;8.60;2.43;;;;;;;;;;5023318;28;20462;-70
2023/04/03 05:49:05;;;;;;;8.20;2.28;;;;;;;;;;5025329;28;20283;-70
2023/04/03 05:51:33;;;;;;;6.05;2.83;;;;;;;;;;5023954;28;20025;-69
2023/04/03 05:54:02;;;;;;;3.17;1.70;;;;;;;;;;5026321;28;20812;-70
2023/04/03 05:56:27;;;;;;;5.60;3.05;;;;;;;;;;5024368;28;20033;-70
2023/04/03 05:58:53;;;;;;;8.27;1.80;;;;;;;;;;5021074;28;20426;-70
2023/04/03 06:01:18;;;;;;;8.60;2.42;;;;;;;;;;5026024;28;20509;-70
2023/04/03 06:03:43;;;;;;;12.83;2.90;;;;;;;;;;5024189;28;20017;-70
2023/04/03 06:06:12;;;;;;;12.67;2.20;;;;;;;;;;5026259;28;20291;-70
2023/04/03 06:08:38;;;;;;;3.92;2.03;;;;;;;;;;5026462;28;20263;-70
2023/04/03 06:11:03;;;;;;;6.63;2.35;;;;;;;;;;5024415;28;20014;-70
2023/04/03 06:13:29;;;;;;;8.32;2.33;;;;;;;;;;5026176;28;20018;-70
2023/04/03 06:15:54;;;;;;;8.02;2.63;;;;;;;;;;5024870;28;20017;-70
2023/04/03 06:18:20;;;;;;;5.05;1.98;;;;;;;;;;5027540;28;20026;-70
2023/04/03 06:20:45;;;;;;;9.40;2.38;;;;;;;;;;5029577;28;20091;-70
2023/04/03 06:23:11;;;;;;;8.30;1.88;;;;;;;;;;5028437;28;20164;-71
2023/04/03 06:25:36;;;;;;;12.75;2.95;;;;;;;;;;5027439;28;20484;-71
2023/04/03 06:28:02;;;;;;;4.95;2.22;;;;;;;;;;5027204;28;20141;-70
2023/04/03 06:30:27;;;;;;;4.80;2.33;;;;;;;;;;5028531;28;20024;-70
2023/04/03 06:32:52;;;;;;;4.35;1.92;;;;;;;;;;5025871;28;20031;-70
2023/04/03 06:35:17;;;;;;;4.77;1.90;;;;;;;;;;5021379;28;20308;-69
2023/04/03 06:37:42;;;;;;;5.78;2.17;;;;;;;;;;5023033;28;20283;-71
2023/04/03 06:40:15;;;;;;;8.77;2.10;;;;;;;;;;5020010;28;20013;-70
2023/04/03 06:42:40;;;;;;;7.68;2.47;;;;;;;;;;5020013;28;20284;-69
2023/04/03 06:45:07;;;;;;;7.63;2.08;;;;;;;;;;5022256;28;20028;-71
2023/04/03 06:47:32;;;;;;;12.10;1.90;;;;;;;;;;5018898;28;20108;-69
2023/04/03 06:49:57;;;;;;;8.15;2.17;;;;;;;;;;5019768;28;20108;-69
2023/04/03 06:52:23;;;;;;;10.70;2.92;;;;;;;;;;5019318;28;20025;-71
2023/04/03 06:54:48;;;;;;;5.65;1.65;;;;;;;;;;5020910;28;20021;-71
2023/04/03 06:57:14;;;;;;;7.72;1.70;;;;;;;;;;5017929;28;20025;-70
2023/04/03 06:59:40;;;;;;;5.68;1.98;;;;;;;;;;5018329;28;21682;-69
2023/04/03 07:02:05;;;;;;;8.27;2.00;;;;;;;;;;5018657;28;20060;-70
2023/04/03 07:04:31;;;;;;;8.40;1.95;;;;;;;;;;5018903;28;20038;-70
2023/04/03 07:06:56;;;;;;;6.13;1.60;;;;;;;;;;5019233;28;20021;-70
2023/04/03 07:09:21;;;;;;;4.83;1.73;;;;;;;;;;5019896;28;20021;-70
2023/04/03 07:11:46;;;;;;;6.07;1.67;;;;;;;;;;5019720;28;20322;-70
2023/04/03 07:14:11;;;;;;;5.23;1.60;;;;;;;;;;5020425;28;20399;-70
2023/04/03 07:16:37;;;;;;;9.40;2.90;;;;;;;;;;5018911;28;20325;-70
2023/04/03 07:19:02;;;;;;;7.43;1.50;;;;;;;;;;5021339;28;20079;-70
2023/04/03 07:21:27;;;;;;;4.60;1.63;;;;;;;;;;5017099;28;20617;-70
2023/04/03 07:23:53;;;;;;;7.63;1.45;;;;;;;;;;5020293;28;20033;-70
2023/04/03 07:26:20;;;;;;;8.57;2.08;;;;;;;;;;5020471;28;20071;-70
2023/04/03 07:28:47;;;;;;;5.28;1.60;;;;;;;;;;5020361;28;20013;-69
2023/04/03 07:31:13;;;;;;;6.03;1.98;;;;;;;;;;5018422;28;20067;-69
2023/04/03 07:33:38;;;;;;;6.88;1.83;;;;;;;;;;5018084;28;20054;-69
2023/04/03 07:36:04;;;;;;;8.00;1.98;;;;;;;;;;5019772;28;20033;-68
2023/04/03 07:38:30;;;;;;;9.30;1.60;;;;;;;;;;5019930;28;20128;-69
2023/04/03 07:40:55;;;;;;;4.88;1.30;;;;;;;;;;5022055;28;20452;-69
2023/04/03 07:43:21;;;;;;;8.88;1.45;;;;;;;;;;5027588;28;20022;-69
2023/04/03 07:45:49;;;;;;;5.72;1.60;;;;;;;;;;5023896;28;20108;-69
2023/04/03 07:48:15;;;;;;;3.45;1.45;;;;;;;;;;5025465;28;20025;-69
2023/04/03 07:50:41;;;;;;;7.80;1.55;;;;;;;;;;5020254;28;20437;-70
2023/04/03 07:53:07;;;;;;;3.88;0.90;;;;;;;;;;5026198;28;20026;-70
2023/04/03 07:55:32;;;;;;;5.63;1.92;;;;;;;;;;5025066;28;20021;-70
2023/04/03 07:57:57;;;;;;;5.82;1.85;;;;;;;;;;5020931;28;20048;-69
2023/04/03 08:00:23;;;;;;;9.80;2.30;;;;;;;;;;5026145;28;20076;-69
2023/04/03 08:02:51;;;;;;;6.45;1.88;;;;;;;;;;5024938;28;20021;-69
2023/04/03 08:05:17;;;;;;;5.70;1.50;;;;;;;;;;5017961;28;20056;-70
2023/04/03 08:07:42;;;;;;;3.08;1.08;;;;;;;;;;5021381;28;20055;-70
2023/04/03 08:10:08;;;;;;;3.28;1.60;;;;;;;;;;5022230;28;20451;-69
2023/04/03 08:12:33;;;;;;;3.70;1.80;;;;;;;;;;5028314;28;20029;-69
2023/04/03 08:14:59;;;;;;;4.93;1.57;;;;;;;;;;5026587;28;20210;-70
2023/04/03 08:17:25;;;;;;;8.38;1.45;;;;;;;;;;5030137;28;20307;-69
2023/04/03 08:19:50;;;;;;;5.72;1.92;;;;;;;;;;5027280;28;20049;-70
2023/04/03 08:22:15;;;;;;;7.88;1.58;;;;;;;;;;5028060;28;20036;-69
2023/04/03 08:24:41;;;;;;;4.00;1.58;;;;;;;;;;5028621;28;20113;-69
2023/04/03 08:27:06;;;;;;;6.80;1.40;;;;;;;;;;5023767;28;20056;-70
2023/04/03 08:29:31;;;;;;;5.40;1.50;;;;;;;;;;5024790;28;20397;-72
2023/04/03 08:31:56;;;;;;;3.70;1.60;;;;;;;;;;5029374;28;20386;-71
2023/04/03 08:34:22;;;;;;;6.05;1.50;;;;;;;;;;5031321;28;20025;-71
2023/04/03 08:36:47;;;;;;;6.25;1.65;;;;;;;;;;5028315;28;20449;-71
2023/04/03 08:39:13;;;;;;;4.72;1.70;;;;;;;;;;5025162;28;20022;-71
2023/04/03 08:41:39;;;;;;;3.15;1.10;;;;;;;;;;5022392;28;20025;-71
2023/04/03 08:44:23;;;;;;;5.05;1.50;;;;;;;;;;5031182;28;20029;-71
2023/04/03 08:46:51;;;;;;;5.03;1.50;;;;;;;;;;5020506;28;20017;-71
2023/04/03 08:49:28;;;;;;;3.70;1.02;;;;;;;;;;5027936;28;20087;-71
2023/04/03 08:51:54;;;;;;;8.50;1.33;;;;;;;;;;5028088;28;20015;-71
2023/04/03 08:54:49;;;;;;;5.63;1.42;;;;;;;;;;5029820;28;20017;-71
2023/04/03 08:57:15;;;;;;;5.70;1.30;;;;;;;;;;4972431;28;20060;-71
2023/04/03 08:59:40;;;;;;;5.72;0.85;;;;;;;;;;5029195;28;20017;-71
2023/04/03 09:02:20;;;;;;;2.20;0.70;;;;;;;;;;5026318;28;20083;-71
2023/04/03 09:04:45;;;;;;;1.65;1.20;;;;;;;;;;5023653;28;20438;-71
2023/04/03 09:07:15;;;;;;;5.50;0.70;;;;;;;;;;5026052;28;20068;-71
2023/04/03 09:09:41;;;;;;;;;;;;;;;;;;5028422;28;22070;-71
2023/04/03 09:12:20;;;;;;;5.15;0.80;;;;;;;;;;5029188;28;20312;-71
2023/04/03 09:14:58;;;;;;;5.53;1.00;;;;;;;;;;5030674;28;20079;-71
2023/04/03 09:17:26;;;;;;;5.88;1.55;;;;;;;;;;5027847;28;20053;-71
2023/04/03 09:20:02;;;;;;;2.53;0.70;;;;;;;;;;5018118;28;20018;-71
2023/04/03 09:22:31;;;;;;;2.60;0.85;;;;;;;;;;5024217;28;20029;-71
2023/04/03 09:25:10;;;;;;;5.35;0.88;;;;;;;;;;5026114;28;20048;-71
2023/04/03 09:27:36;;;;;;;3.97;1.17;;;;;;;;;;5021916;28;20029;-71
2023/04/03 09:30:02;;;;;;;3.92;1.00;;;;;;;;;;5018549;28;20014;-71
2023/04/03 09:32:28;;;;;;;3.95;1.33;;;;;;;;;;5021718;28;20017;-71
2023/04/03 09:34:56;;;;;;;3.47;1.00;;;;;;;;;;5021992;28;20060;-71
2023/04/03 09:37:36;;;;;;;6.30;1.73;;;;;;;;;;5018549;28;20654;-72
2023/04/03 09:40:04;;;;;;;4.38;1.08;;;;;;;;;;5021571;28;20385;-71
2023/04/03 09:42:29;;;;;;;8.43;1.10;;;;;;;;;;5021359;28;20044;-71
2023/04/03 09:44:54;;;;;;;8.00;1.02;;;;;;;;;;5022981;28;20502;-71
2023/04/03 09:47:33;;;;;;;5.60;1.85;;;;;;;;;;5021617;28;20025;-71
2023/04/03 09:50:10;;;;;;;3.92;0.77;;;;;;;;;;5021444;28;20033;-71
2023/04/03 09:52:36;;;;;;;3.97;1.33;;;;;;;;;;5019864;28;20096;-71
2023/04/03 09:55:13;;;;;;;5.40;0.90;;;;;;;;;;5019970;28;20018;-71
2023/04/03 09:57:38;;;;;;;3.00;1.00;;;;;;;;;;5020321;28;20490;-71
2023/04/03 10:00:04;;;;;;;2.50;0.80;;;;;;;;;;5023679;28;20070;-71
2023/04/03 10:02:34;;;;;;;3.20;1.25;;;;;;;;;;5021327;28;20082;-71
2023/04/03 10:05:00;;;;;;;;;;;;;;;;;;5021775;28;20034;-72
2023/04/03 10:07:26;;;;;;;6.65;1.40;;;;;;;;;;5017856;28;20527;-71
2023/04/03 10:09:56;;;;;;;7.20;1.45;;;;;;;;;;5018138;28;20032;-71
2023/04/03 10:12:21;;;;;;;5.07;1.50;;;;;;;;;;5018887;28;20385;-71
2023/04/03 10:14:52;;;;;;;6.15;1.00;;;;;;;;;;5021447;28;20267;-71
2023/04/03 10:17:20;;;;;;;4.80;1.33;;;;;;;;;;5020948;28;20029;-71
2023/04/03 10:19:48;;;;;;;5.65;1.33;;;;;;;;;;5021067;28;20021;-71
2023/04/03 10:22:33;;;;;;;4.63;1.30;;;;;;;;;;5020262;28;20036;-71
2023/04/03 10:25:02;;;;;;;4.88;0.80;;;;;;;;;;5019489;28;20026;-71
2023/04/03 10:27:46;;;;;;;5.80;1.17;;;;;;;;;;5019564;28;20022;-71
2023/04/03 10:30:28;;;;;;;4.97;1.50;;;;;;;;;;5022072;28;20112;-71
2023/04/03 10:33:06;;;;;;;4.15;0.90;;;;;;;;;;5019466;28;20505;-71
2023/04/03 10:35:37;;;;;;;5.35;0.77;;;;;;;;;;5019156;28;20510;-71
2023/04/03 10:38:21;;;;;;;2.17;1.20;;;;;;;;;;5016385;28;20028;-71
2023/04/03 10:41:10;;;;;;;3.33;0.90;;;;;;;;;;5017840;28;20029;-71
2023/04/03 10:43:56;;;;;;;6.05;1.60;;;;;;;;;;5027210;28;20075;-71
2023/04/03 10:46:35;;;;;;;3.95;0.70;;;;;;;;;;5025006;28;20413;-72
2023/04/03 10:49:19;;;;;;;3.78;1.40;;;;;;;;;;5028220;28;20091;-71
2023/04/03 10:51:51;;;;;;;3.10;1.00;;;;;;;;;;5020731;28;20048;-71
2023/04/03 10:54:20;;;;;;;4.97;1.20;;;;;;;;;;5018171;28;20056;-71
2023/04/03 10:56:51;;;;;;;3.42;1.02;;;;;;;;;;5020650;28;20075;-72
2023/04/03 10:59:27;;;;;;;6.53;1.13;;;;;;;;;;5022728;28;20017;-72
2023/04/03 11:01:57;;;;;;;1.77;0.60;;;;;;;;;;5020134;28;20029;-71
2023/04/03 11:04:25;;;;;;;1.17;0.38;;;;;;;;;;5019794;28;20037;-72
2023/04/03 11:06:53;;;;;;;2.25;0.80;;;;;;;;;;5021499;28;20025;-72
2023/04/03 11:09:18;;;;;;;2.90;0.85;;;;;;;;;;5022846;28;20030;-72
2023/04/03 11:11:44;;;;;;;4.22;1.25;;;;;;;;;;5018318;28;20552;-72
2023/04/03 11:14:18;;;;;;;1.60;0.68;;;;;;;;;;5020042;28;20025;-71
2023/04/03 11:16:47;;;;;;;3.70;0.70;;;;;;;;;;5019862;28;20096;-71
2023/04/03 11:19:21;;;;;;;3.35;1.00;;;;;;;;;;5020921;28;20017;-72
2023/04/03 11:21:52;;;;;;;4.22;0.73;;;;;;;;;;5018822;28;20026;-72
2023/04/03 11:24:23;;;;;;;4.43;1.00;;;;;;;;;;5019445;28;20364;-71
2023/04/03 11:26:49;;;;;;;3.38;0.93;;;;;;;;;;5018875;28;20036;-71
2023/04/03 11:29:16;;;;;;;2.40;0.90;;;;;;;;;;5021432;28;20101;-72
2023/04/03 11:31:47;;;;;;;3.17;0.45;;;;;;;;;;5016632;28;20072;-72
2023/04/03 11:34:24;;;;;;;2.78;0.73;;;;;;;;;;5018451;28;20500;-72
2023/04/03 11:36:54;;;;;;;2.30;0.70;;;;;;;;;;5017668;28;20109;-71
2023/04/03 11:39:20;;;;;;;;;;;;;;;;;;5033652;28;20477;-71
2023/04/03 11:41:45;;;;;;;7.15;1.95;;;;;;;;;;5020187;28;19928;-72
2023/04/03 11:44:27;;;;;;;2.37;0.80;;;;;;;;;;5020822;28;20080;-71
2023/04/03 11:46:57;;;;;;;2.22;0.60;;;;;;;;;;5023981;28;20622;-72
2023/04/03 11:49:42;;;;;;;4.53;0.90;;;;;;;;;;5024425;28;20130;-71
2023/04/03 11:52:10;;;;;;;4.68;1.00;;;;;;;;;;5025192;28;20035;-71
2023/04/03 11:54:42;;;;;;;2.67;1.00;;;;;;;;;;5023988;28;20049;-72
2023/04/03 11:57:42;;;;;;;2.35;0.65;;;;;;;;;;5024536;28;20386;-72
2023/04/03 12:00:26;;;;;;;2.15;0.52;;;;;;;;;;5022301;28;20370;-71
2023/04/03 12:02:52;;;;;;;2.78;0.88;;;;;;;;;;5027171;28;20026;-72
2023/04/03 12:05:26;;;;;;;1.67;0.50;;;;;;;;;;5028927;28;20075;-71
2023/04/03 12:08:10;;;;;;;5.00;0.70;;;;;;;;;;5021625;28;20053;-72
2023/04/03 12:10:36;;;;;;;2.25;0.40;;;;;;;;;;5022525;28;20095;-72
2023/04/03 12:13:03;;;;;;;4.30;1.40;;;;;;;;;;5026270;28;20641;-73
2023/04/03 12:15:40;;;;;;;2.65;0.80;;;;;;;;;;5028278;28;20152;-71
2023/04/03 12:18:24;;;;;;;4.00;1.27;;;;;;;;;;5022190;28;20018;-72
2023/04/03 12:20:54;;;;;;;2.15;0.80;;;;;;;;;;5023200;28;20565;-72
2023/04/03 12:23:27;;;;;;;3.90;1.08;;;;;;;;;;5025579;28;20091;-72
2023/04/03 12:25:58;;;;;;;1.92;0.60;;;;;;;;;;5021198;28;20021;-73
2023/04/03 12:28:24;;;;;;;2.85;1.05;;;;;;;;;;5022058;28;21398;-72
2023/04/03 12:30:49;;;;;;;1.50;0.68;;;;;;;;;;5023897;28;20120;-72
2023/04/03 12:33:28;;;;;;;2.80;0.63;;;;;;;;;;5026848;28;20030;-72
2023/04/03 12:36:06;;;;;;;3.10;1.27;;;;;;;;;;5028960;28;20623;-72
2023/04/03 12:38:47;;;;;;;3.78;0.80;;;;;;;;;;5028573;28;20028;-71
2023/04/03 12:41:18;;;;;;;4.03;0.80;;;;;;;;;;5029913;28;20036;-72
2023/04/03 12:44:04;;;;;;;4.13;0.70;;;;;;;;;;5029691;28;20029;-71
2023/04/03 12:46:40;;;;;;;1.95;0.52;;;;;;;;;;5026126;28;20104;-72
2023/04/03 12:49:14;;;;;;;2.58;1.25;;;;;;;;;;5022982;28;20022;-72
2023/04/03 12:51:44;;;;;;;4.25;0.98;;;;;;;;;;5028794;28;20421;-72
2023/04/03 12:54:12;;;;;;;4.32;1.00;;;;;;;;;;5027853;28;20021;-71
2023/04/03 12:56:38;;;;;;;4.15;0.95;;;;;;;;;;5026013;28;20025;-73
2023/04/03 12:59:36;;;;;;;4.10;0.83;;;;;;;;;;5030022;28;20383;-71
2023/04/03 13:02:02;;;;;;;3.72;0.88;;;;;;;;;;5000715;28;20283;-72
2023/04/03 13:04:28;;;;;;;2.22;0.80;;;;;;;;;;5022007;28;20025;-72
2023/04/03 13:06:53;;;;;;;3.33;1.02;;;;;;;;;;5023206;28;20092;-72
2023/04/03 13:09:23;;;;;;;6.40;0.70;;;;;;;;;;5021941;28;20021;-72
2023/04/03 13:11:54;;;;;;;3.33;1.13;;;;;;;;;;5022612;28;20382;-71
2023/04/03 13:14:25;;;;;;;4.78;0.98;;;;;;;;;;5026322;28;20033;-72
2023/04/03 13:16:57;;;;;;;3.35;0.90;;;;;;;;;;5026466;28;20018;-72
2023/04/03 13:19:24;;;;;;;3.78;1.08;;;;;;;;;;5026184;28;20017;-72
2023/04/03 13:21:52;;;;;;;2.90;1.02;;;;;;;;;;5022999;28;20025;-72
2023/04/03 13:24:17;;;;;;;2.80;1.05;;;;;;;;;;5021992;28;20025;-71
2023/04/03 13:26:42;;;;;;;2.20;0.82;;;;;;;;;;5019191;28;20055;-72
2023/04/03 13:29:18;;;;;;;8.45;0.90;;;;;;;;;;5020263;28;20037;-72
2023/04/03 13:31:43;;;;;;;2.63;0.98;;;;;;;;;;5025788;28;20486;-72
2023/04/03 13:34:09;;;;;;;1.92;0.90;;;;;;;;;;5027969;28;20060;-72
2023/04/03 13:36:41;;;;;;;5.55;1.30;;;;;;;;;;5027842;28;20018;-72
2023/04/03 13:39:21;;;;;;;3.33;0.98;;;;;;;;;;5027124;28;20061;-72
2023/04/03 13:41:50;;;;;;;2.92;0.90;;;;;;;;;;5027475;28;20025;-72
2023/04/03 13:44:21;;;;;;;5.50;1.42;;;;;;;;;;5023753;28;20101;-73
2023/04/03 13:46:47;;;;;;;3.42;1.00;;;;;;;;;;5025850;28;20029;-71
2023/04/03 13:49:20;;;;;;;2.05;0.93;;;;;;;;;;5024241;28;20021;-72
2023/04/03 13:51:45;;;;;;;8.60;1.17;;;;;;;;;;5027693;28;20022;-73
2023/04/03 13:54:18;;;;;;;3.17;0.98;;;;;;;;;;5027434;28;20461;-71
2023/04/03 13:56:44;;;;;;;2.75;0.90;;;;;;;;;;5027125;28;20018;-72
2023/04/03 13:59:12;;;;;;;6.20;1.10;;;;;;;;;;5025636;28;20564;-72
2023/04/03 14:01:42;;;;;;;3.53;0.98;;;;;;;;;;5026989;28;20021;-72
2023/04/03 14:04:07;;;;;;;;;;;;;;;;;;5027596;28;20072;-72
2023/04/03 14:06:33;;;;;;;3.97;1.02;;;;;;;;;;5029096;28;19905;-69
2023/04/03 14:08:58;;;;;;;4.97;1.15;;;;;;;;;;5025269;28;20037;-74
2023/04/03 14:11:28;;;;;;;4.57;0.95;;;;;;;;;;5026899;28;20017;-72
2023/04/03 14:13:53;;;;;;;;;;;;;;;;;;5027885;28;20013;-72
2023/04/03 14:16:25;;;;;;;1.67;0.77;;;;;;;;;;5026646;28;20381;-73
2023/04/03 14:18:52;;;;;;;2.70;1.00;;;;;;;;;;5039780;28;20527;-72
2023/04/03 14:21:17;;;;;;;6.82;1.70;;;;;;;;;;5026992;28;20072;-72
2023/04/03 14:23:43;;;;;;;2.63;0.95;;;;;;;;;;5025104;28;20021;-72
2023/04/03 14:26:20;;;;;;;6.60;1.33;;;;;;;;;;5023235;28;20049;-72
2023/04/03 14:28:46;;;;;;;9.02;1.10;;;;;;;;;;5019346;28;20029;-72
2023/04/03 14:31:12;;;;;;;6.57;1.30;;;;;;;;;;5021120;28;20034;-72
2023/04/03 14:33:37;;;;;;;4.47;1.00;;;;;;;;;;5019972;28;20067;-72
2023/04/03 14:36:11;;;;;;;4.13;0.93;;;;;;;;;;5021513;28;20426;-72
2023/04/03 14:38:37;;;;;;;3.90;1.20;;;;;;;;;;5016920;28;20026;-72
2023/04/03 14:41:02;;;;;;;4.22;1.13;;;;;;;;;;5020358;28;20365;-72
2023/04/03 14:43:27;;;;;;;3.22;0.90;;;;;;;;;;5016409;28;20525;-73
2023/04/03 14:45:52;;;;;;;7.97;1.20;;;;;;;;;;5014818;28;20087;-72